sensor_id;sensor_type;location;lat;lon;timestamp;P1;durP1;ratioP1;P2;durP2;ratioP2
21168;SDS011;10742;51.816;8.662;2023-04-06T00:02:01;8.50;;;3.97;;
21168;SDS011;10742;51.816;8.662;2023-04-06T00:05:04;14.83;;;4.53;;
21168;SDS011;10742;51.816;8.662;2023-04-06T00:08:07;6.40;;;3.70;;
21168;SDS011;10742;51.816;8.662;2023-04-06T00:11:09;9.47;;;4.00;;
21168;SDS011;10742;51.816;8.662;2023-04-06T00:14:12;10.50;;;3.97;;
21168;SDS011;10742;51.816;8.662;2023-04-06T00:17:15;8.43;;;3.70;;
21168;SDS011;10742;51.816;8.662;2023-04-06T00:20:18;9.77;;;3.97;;
21168;SDS011;10742;51.816;8.662;2023-04-06T00:23:21;12.57;;;4.23;;
21168;SDS011;10742;51.816;8.662;2023-04-06T00:26:23;10.70;;;4.20;;
21168;SDS011;10742;51.816;8.662;2023-04-06T00:29:28;7.67;;;4.03;;
21168;SDS011;10742;51.816;8.662;2023-04-06T00:32:31;9.60;;;4.20;;
21168;SDS011;10742;51.816;8.662;2023-04-06T00:35:33;8.50;;;4.17;;
21168;SDS011;10742;51.816;8.662;2023-04-06T00:38:36;10.77;;;4.97;;
21168;SDS011;10742;51.816;8.662;2023-04-06T00:41:39;9.30;;;4.17;;
21168;SDS011;10742;51.816;8.662;2023-04-06T00:44:48;10.93;;;4.33;;
21168;SDS011;10742;51.816;8.662;2023-04-06T00:47:50;10.67;;;4.20;;
21168;SDS011;10742;51.816;8.662;2023-04-06T00:50:54;8.37;;;4.20;;
21168;SDS011;10742;51.816;8.662;2023-04-06T00:53:57;10.13;;;4.40;;
21168;SDS011;10742;51.816;8.662;2023-04-06T00:57:00;13.70;;;4.60;;
21168;SDS011;10742;51.816;8.662;2023-04-06T01:00:04;10.97;;;4.40;;
21168;SDS011;10742;51.816;8.662;2023-04-06T01:03:07;11.77;;;4.50;;
21168;SDS011;10742;51.816;8.662;2023-04-06T01:06:14;17.17;;;4.73;;
21168;SDS011;10742;51.816;8.662;2023-04-06T01:09:20;7.27;;;3.83;;
21168;SDS011;10742;51.816;8.662;2023-04-06T01:12:26;10.73;;;4.80;;
21168;SDS011;10742;51.816;8.662;2023-04-06T01:15:28;11.53;;;4.07;;
21168;SDS011;10742;51.816;8.662;2023-04-06T01:18:32;8.17;;;4.27;;
21168;SDS011;10742;51.816;8.662;2023-04-06T01:21:57;9.30;;;4.50;;
21168;SDS011;10742;51.816;8.662;2023-04-06T01:25:16;11.73;;;4.23;;
21168;SDS011;10742;51.816;8.662;2023-04-06T01:28:27;11.30;;;4.30;;
21168;SDS011;10742;51.816;8.662;2023-04-06T01:31:38;9.80;;;4.27;;
21168;SDS011;10742;51.816;8.662;2023-04-06T01:34:42;13.80;;;4.80;;
21168;SDS011;10742;51.816;8.662;2023-04-06T01:37:44;10.33;;;4.43;;
21168;SDS011;10742;51.816;8.662;2023-04-06T01:40:55;7.80;;;4.07;;
21168;SDS011;10742;51.816;8.662;2023-04-06T01:43:59;13.43;;;4.20;;
21168;SDS011;10742;51.816;8.662;2023-04-06T01:47:04;11.17;;;4.50;;
21168;SDS011;10742;51.816;8.662;2023-04-06T01:50:07;10.83;;;4.60;;
21168;SDS011;10742;51.816;8.662;2023-04-06T01:53:15;15.27;;;5.13;;
21168;SDS011;10742;51.816;8.662;2023-04-06T01:56:19;11.20;;;4.70;;
21168;SDS011;10742;51.816;8.662;2023-04-06T01:59:33;13.20;;;5.10;;
21168;SDS011;10742;51.816;8.662;2023-04-06T02:02:41;14.60;;;5.03;;
21168;SDS011;10742;51.816;8.662;2023-04-06T02:05:51;10.30;;;4.47;;
21168;SDS011;10742;51.816;8.662;2023-04-06T02:09:02;11.33;;;4.50;;
21168;SDS011;10742;51.816;8.662;2023-04-06T02:12:04;14.13;;;4.37;;
21168;SDS011;10742;51.816;8.662;2023-04-06T02:15:08;12.80;;;4.80;;
21168;SDS011;10742;51.816;8.662;2023-04-06T02:18:11;7.53;;;4.60;;
21168;SDS011;10742;51.816;8.662;2023-04-06T02:21:15;12.40;;;4.10;;
21168;SDS011;10742;51.816;8.662;2023-04-06T02:24:22;10.43;;;4.50;;
21168;SDS011;10742;51.816;8.662;2023-04-06T02:27:24;10.23;;;4.50;;
21168;SDS011;10742;51.816;8.662;2023-04-06T02:30:27;12.07;;;4.47;;
21168;SDS011;10742;51.816;8.662;2023-04-06T02:33:30;13.87;;;4.90;;
21168;SDS011;10742;51.816;8.662;2023-04-06T02:36:34;15.43;;;4.63;;
21168;SDS011;10742;51.816;8.662;2023-04-06T02:39:37;8.43;;;4.40;;
21168;SDS011;10742;51.816;8.662;2023-04-06T02:42:42;10.33;;;4.37;;
21168;SDS011;10742;51.816;8.662;2023-04-06T02:45:47;12.47;;;4.43;;
21168;SDS011;10742;51.816;8.662;2023-04-06T02:48:50;8.57;;;3.93;;
21168;SDS011;10742;51.816;8.662;2023-04-06T02:51:52;9.90;;;4.23;;
21168;SDS011;10742;51.816;8.662;2023-04-06T02:54:59;10.00;;;4.80;;
21168;SDS011;10742;51.816;8.662;2023-04-06T02:58:05;12.07;;;4.97;;
21168;SDS011;10742;51.816;8.662;2023-04-06T03:01:17;8.77;;;4.10;;
21168;SDS011;10742;51.816;8.662;2023-04-06T03:04:21;9.77;;;4.47;;
21168;SDS011;10742;51.816;8.662;2023-04-06T03:07:28;11.17;;;4.50;;
21168;SDS011;10742;51.816;8.662;2023-04-06T03:10:31;12.37;;;4.50;;
21168;SDS011;10742;51.816;8.662;2023-04-06T03:13:34;10.17;;;4.63;;
21168;SDS011;10742;51.816;8.662;2023-04-06T03:16:38;9.10;;;4.30;;
21168;SDS011;10742;51.816;8.662;2023-04-06T03:19:40;11.87;;;4.60;;
21168;SDS011;10742;51.816;8.662;2023-04-06T03:22:45;10.10;;;4.57;;
21168;SDS011;10742;51.816;8.662;2023-04-06T03:25:51;13.73;;;4.63;;
21168;SDS011;10742;51.816;8.662;2023-04-06T03:28:55;9.93;;;4.20;;
21168;SDS011;10742;51.816;8.662;2023-04-06T03:32:02;9.33;;;4.40;;
21168;SDS011;10742;51.816;8.662;2023-04-06T03:35:12;11.93;;;4.53;;
21168;SDS011;10742;51.816;8.662;2023-04-06T03:38:15;9.50;;;4.53;;
21168;SDS011;10742;51.816;8.662;2023-04-06T03:41:17;11.73;;;4.63;;
21168;SDS011;10742;51.816;8.662;2023-04-06T03:44:28;9.50;;;4.40;;
21168;SDS011;10742;51.816;8.662;2023-04-06T03:47:31;8.20;;;4.07;;
21168;SDS011;10742;51.816;8.662;2023-04-06T03:50:38;11.23;;;4.83;;
21168;SDS011;10742;51.816;8.662;2023-04-06T03:53:41;13.17;;;5.00;;
21168;SDS011;10742;51.816;8.662;2023-04-06T03:56:43;13.10;;;5.20;;
21168;SDS011;10742;51.816;8.662;2023-04-06T03:59:46;11.80;;;4.33;;
21168;SDS011;10742;51.816;8.662;2023-04-06T04:02:48;7.93;;;4.00;;
21168;SDS011;10742;51.816;8.662;2023-04-06T04:05:51;9.43;;;4.10;;
21168;SDS011;10742;51.816;8.662;2023-04-06T04:08:53;13.00;;;4.77;;
21168;SDS011;10742;51.816;8.662;2023-04-06T04:11:57;9.57;;;4.57;;
21168;SDS011;10742;51.816;8.662;2023-04-06T04:14:59;9.27;;;4.37;;
21168;SDS011;10742;51.816;8.662;2023-04-06T04:18:02;9.97;;;4.43;;
21168;SDS011;10742;51.816;8.662;2023-04-06T04:21:04;13.93;;;5.03;;
21168;SDS011;10742;51.816;8.662;2023-04-06T04:24:08;9.17;;;4.50;;
21168;SDS011;10742;51.816;8.662;2023-04-06T04:27:11;13.07;;;4.67;;
21168;SDS011;10742;51.816;8.662;2023-04-06T04:30:15;14.37;;;5.10;;
21168;SDS011;10742;51.816;8.662;2023-04-06T04:33:17;9.33;;;4.63;;
21168;SDS011;10742;51.816;8.662;2023-04-06T04:36:20;11.63;;;4.70;;
21168;SDS011;10742;51.816;8.662;2023-04-06T04:39:23;14.10;;;4.40;;
21168;SDS011;10742;51.816;8.662;2023-04-06T04:42:33;10.43;;;4.60;;
21168;SDS011;10742;51.816;8.662;2023-04-06T04:45:39;11.70;;;4.40;;
21168;SDS011;10742;51.816;8.662;2023-04-06T04:49:08;12.23;;;4.97;;
21168;SDS011;10742;51.816;8.662;2023-04-06T04:52:10;11.03;;;4.97;;
21168;SDS011;10742;51.816;8.662;2023-04-06T04:55:32;12.37;;;4.67;;
21168;SDS011;10742;51.816;8.662;2023-04-06T04:58:36;11.37;;;4.90;;
21168;SDS011;10742;51.816;8.662;2023-04-06T05:01:38;15.53;;;5.00;;
21168;SDS011;10742;51.816;8.662;2023-04-06T05:04:49;14.07;;;5.00;;
21168;SDS011;10742;51.816;8.662;2023-04-06T05:07:56;10.93;;;4.87;;
21168;SDS011;10742;51.816;8.662;2023-04-06T05:11:14;12.40;;;4.90;;
21168;SDS011;10742;51.816;8.662;2023-04-06T05:14:20;12.13;;;5.00;;
21168;SDS011;10742;51.816;8.662;2023-04-06T05:17:23;13.73;;;5.17;;
21168;SDS011;10742;51.816;8.662;2023-04-06T05:20:27;11.53;;;4.43;;
21168;SDS011;10742;51.816;8.662;2023-04-06T05:23:30;12.07;;;4.97;;
21168;SDS011;10742;51.816;8.662;2023-04-06T05:26:35;15.27;;;4.90;;
21168;SDS011;10742;51.816;8.662;2023-04-06T05:29:44;11.70;;;4.80;;
21168;SDS011;10742;51.816;8.662;2023-04-06T05:32:47;14.90;;;4.80;;
21168;SDS011;10742;51.816;8.662;2023-04-06T05:35:51;12.80;;;6.03;;
21168;SDS011;10742;51.816;8.662;2023-04-06T05:38:53;14.17;;;5.40;;
21168;SDS011;10742;51.816;8.662;2023-04-06T05:42:11;12.10;;;4.73;;
21168;SDS011;10742;51.816;8.662;2023-04-06T05:45:30;13.13;;;5.00;;
21168;SDS011;10742;51.816;8.662;2023-04-06T05:48:33;11.80;;;4.47;;
21168;SDS011;10742;51.816;8.662;2023-04-06T05:51:37;11.83;;;5.03;;
21168;SDS011;10742;51.816;8.662;2023-04-06T05:54:39;15.23;;;5.03;;
21168;SDS011;10742;51.816;8.662;2023-04-06T05:57:42;14.40;;;4.60;;
21168;SDS011;10742;51.816;8.662;2023-04-06T06:00:45;10.63;;;4.90;;
21168;SDS011;10742;51.816;8.662;2023-04-06T06:03:50;13.70;;;4.77;;
21168;SDS011;10742;51.816;8.662;2023-04-06T06:06:53;11.67;;;4.53;;
21168;SDS011;10742;51.816;8.662;2023-04-06T06:10:02;15.77;;;5.00;;
21168;SDS011;10742;51.816;8.662;2023-04-06T06:13:07;14.83;;;4.80;;
21168;SDS011;10742;51.816;8.662;2023-04-06T06:16:10;10.57;;;4.67;;
21168;SDS011;10742;51.816;8.662;2023-04-06T06:19:18;13.00;;;5.00;;
21168;SDS011;10742;51.816;8.662;2023-04-06T06:22:22;12.33;;;5.17;;
21168;SDS011;10742;51.816;8.662;2023-04-06T06:25:24;15.57;;;4.93;;
21168;SDS011;10742;51.816;8.662;2023-04-06T06:28:28;16.13;;;4.57;;
21168;SDS011;10742;51.816;8.662;2023-04-06T06:31:31;10.60;;;4.67;;
21168;SDS011;10742;51.816;8.662;2023-04-06T06:34:34;11.90;;;4.93;;
21168;SDS011;10742;51.816;8.662;2023-04-06T06:37:39;12.17;;;4.70;;
21168;SDS011;10742;51.816;8.662;2023-04-06T06:40:46;12.97;;;4.57;;
21168;SDS011;10742;51.816;8.662;2023-04-06T06:43:50;13.80;;;4.33;;
21168;SDS011;10742;51.816;8.662;2023-04-06T06:46:53;9.97;;;4.73;;
21168;SDS011;10742;51.816;8.662;2023-04-06T06:49:55;8.10;;;4.17;;
21168;SDS011;10742;51.816;8.662;2023-04-06T06:52:58;10.17;;;4.57;;
21168;SDS011;10742;51.816;8.662;2023-04-06T06:56:01;10.90;;;4.70;;
21168;SDS011;10742;51.816;8.662;2023-04-06T06:59:05;10.57;;;4.40;;
21168;SDS011;10742;51.816;8.662;2023-04-06T07:02:10;9.87;;;4.50;;
21168;SDS011;10742;51.816;8.662;2023-04-06T07:05:13;10.37;;;4.43;;
21168;SDS011;10742;51.816;8.662;2023-04-06T07:08:25;10.27;;;4.30;;
21168;SDS011;10742;51.816;8.662;2023-04-06T07:11:27;10.93;;;4.80;;
21168;SDS011;10742;51.816;8.662;2023-04-06T07:14:30;9.87;;;4.40;;
21168;SDS011;10742;51.816;8.662;2023-04-06T07:17:32;9.73;;;4.00;;
21168;SDS011;10742;51.816;8.662;2023-04-06T07:20:35;12.50;;;4.40;;
21168;SDS011;10742;51.816;8.662;2023-04-06T07:23:38;9.83;;;4.87;;
21168;SDS011;10742;51.816;8.662;2023-04-06T07:26:41;10.90;;;4.77;;
21168;SDS011;10742;51.816;8.662;2023-04-06T07:29:44;11.13;;;4.53;;
21168;SDS011;10742;51.816;8.662;2023-04-06T07:32:47;11.50;;;4.50;;
21168;SDS011;10742;51.816;8.662;2023-04-06T07:35:50;8.30;;;4.20;;
21168;SDS011;10742;51.816;8.662;2023-04-06T07:38:53;12.33;;;4.73;;
21168;SDS011;10742;51.816;8.662;2023-04-06T07:41:57;11.10;;;4.30;;
21168;SDS011;10742;51.816;8.662;2023-04-06T07:44:59;9.67;;;4.77;;
21168;SDS011;10742;51.816;8.662;2023-04-06T07:48:02;14.00;;;4.87;;
21168;SDS011;10742;51.816;8.662;2023-04-06T07:51:06;9.40;;;4.60;;
21168;SDS011;10742;51.816;8.662;2023-04-06T07:54:13;10.53;;;4.70;;
21168;SDS011;10742;51.816;8.662;2023-04-06T07:57:15;13.07;;;4.90;;
21168;SDS011;10742;51.816;8.662;2023-04-06T08:00:18;12.07;;;5.03;;
21168;SDS011;10742;51.816;8.662;2023-04-06T08:03:21;14.33;;;4.60;;
21168;SDS011;10742;51.816;8.662;2023-04-06T08:06:27;12.57;;;5.13;;
21168;SDS011;10742;51.816;8.662;2023-04-06T08:09:30;13.07;;;4.93;;
21168;SDS011;10742;51.816;8.662;2023-04-06T08:12:33;9.70;;;4.50;;
21168;SDS011;10742;51.816;8.662;2023-04-06T08:15:36;13.03;;;4.80;;
21168;SDS011;10742;51.816;8.662;2023-04-06T08:18:39;12.13;;;4.87;;
21168;SDS011;10742;51.816;8.662;2023-04-06T08:21:41;10.20;;;4.73;;
21168;SDS011;10742;51.816;8.662;2023-04-06T08:24:44;10.23;;;4.77;;
21168;SDS011;10742;51.816;8.662;2023-04-06T08:27:46;7.47;;;4.27;;
21168;SDS011;10742;51.816;8.662;2023-04-06T08:30:49;13.20;;;4.80;;
21168;SDS011;10742;51.816;8.662;2023-04-06T08:33:52;11.10;;;5.07;;
21168;SDS011;10742;51.816;8.662;2023-04-06T08:36:55;11.57;;;4.93;;
21168;SDS011;10742;51.816;8.662;2023-04-06T08:39:57;10.57;;;4.77;;
21168;SDS011;10742;51.816;8.662;2023-04-06T08:43:00;11.93;;;5.13;;
21168;SDS011;10742;51.816;8.662;2023-04-06T08:46:05;10.07;;;5.13;;
21168;SDS011;10742;51.816;8.662;2023-04-06T08:49:08;11.43;;;5.60;;
21168;SDS011;10742;51.816;8.662;2023-04-06T08:52:10;11.70;;;4.93;;
21168;SDS011;10742;51.816;8.662;2023-04-06T08:55:17;12.97;;;5.20;;
21168;SDS011;10742;51.816;8.662;2023-04-06T08:58:20;10.33;;;5.40;;
21168;SDS011;10742;51.816;8.662;2023-04-06T09:01:28;10.67;;;5.33;;
21168;SDS011;10742;51.816;8.662;2023-04-06T09:04:35;13.07;;;5.60;;
21168;SDS011;10742;51.816;8.662;2023-04-06T09:07:40;12.30;;;5.80;;
21168;SDS011;10742;51.816;8.662;2023-04-06T09:10:42;13.50;;;5.30;;
21168;SDS011;10742;51.816;8.662;2023-04-06T09:13:46;11.53;;;5.17;;
21168;SDS011;10742;51.816;8.662;2023-04-06T09:16:55;13.57;;;5.73;;
21168;SDS011;10742;51.816;8.662;2023-04-06T09:19:59;17.07;;;6.00;;
21168;SDS011;10742;51.816;8.662;2023-04-06T09:23:02;19.17;;;6.17;;
21168;SDS011;10742;51.816;8.662;2023-04-06T09:29:08;15.10;;;6.17;;
21168;SDS011;10742;51.816;8.662;2023-04-06T09:32:11;12.87;;;5.80;;
21168;SDS011;10742;51.816;8.662;2023-04-06T09:35:19;13.80;;;6.67;;
21168;SDS011;10742;51.816;8.662;2023-04-06T09:38:22;14.93;;;6.33;;
21168;SDS011;10742;51.816;8.662;2023-04-06T09:41:25;14.03;;;6.77;;
21168;SDS011;10742;51.816;8.662;2023-04-06T09:44:29;13.93;;;6.40;;
21168;SDS011;10742;51.816;8.662;2023-04-06T09:47:32;14.60;;;6.10;;
21168;SDS011;10742;51.816;8.662;2023-04-06T09:50:36;14.43;;;6.20;;
21168;SDS011;10742;51.816;8.662;2023-04-06T09:53:39;13.73;;;6.47;;
21168;SDS011;10742;51.816;8.662;2023-04-06T10:00:22;16.63;;;6.97;;
21168;SDS011;10742;51.816;8.662;2023-04-06T10:03:30;17.67;;;6.83;;
21168;SDS011;10742;51.816;8.662;2023-04-06T10:06:45;17.27;;;7.03;;
21168;SDS011;10742;51.816;8.662;2023-04-06T10:09:54;19.20;;;7.27;;
21168;SDS011;10742;51.816;8.662;2023-04-06T10:12:57;18.00;;;7.37;;
21168;SDS011;10742;51.816;8.662;2023-04-06T10:16:00;13.37;;;6.57;;
21168;SDS011;10742;51.816;8.662;2023-04-06T10:19:10;17.97;;;6.43;;
21168;SDS011;10742;51.816;8.662;2023-04-06T10:22:22;18.40;;;6.97;;
21168;SDS011;10742;51.816;8.662;2023-04-06T10:25:55;14.20;;;6.73;;
21168;SDS011;10742;51.816;8.662;2023-04-06T10:29:02;17.43;;;6.77;;
21168;SDS011;10742;51.816;8.662;2023-04-06T10:32:06;13.47;;;6.83;;
21168;SDS011;10742;51.816;8.662;2023-04-06T10:35:11;16.80;;;7.33;;
21168;SDS011;10742;51.816;8.662;2023-04-06T10:38:18;15.80;;;7.27;;
21168;SDS011;10742;51.816;8.662;2023-04-06T10:41:33;16.20;;;6.93;;
21168;SDS011;10742;51.816;8.662;2023-04-06T10:44:41;16.33;;;6.87;;
21168;SDS011;10742;51.816;8.662;2023-04-06T10:47:44;17.30;;;7.50;;
21168;SDS011;10742;51.816;8.662;2023-04-06T10:50:51;15.83;;;7.20;;
21168;SDS011;10742;51.816;8.662;2023-04-06T10:53:54;16.37;;;7.10;;
21168;SDS011;10742;51.816;8.662;2023-04-06T10:56:57;16.67;;;6.97;;
21168;SDS011;10742;51.816;8.662;2023-04-06T10:59:59;18.10;;;7.30;;
21168;SDS011;10742;51.816;8.662;2023-04-06T11:03:02;16.73;;;7.50;;
21168;SDS011;10742;51.816;8.662;2023-04-06T11:06:05;16.97;;;7.40;;
21168;SDS011;10742;51.816;8.662;2023-04-06T11:09:08;17.37;;;7.20;;
21168;SDS011;10742;51.816;8.662;2023-04-06T11:12:20;18.90;;;7.70;;
21168;SDS011;10742;51.816;8.662;2023-04-06T11:15:26;18.30;;;7.73;;
21168;SDS011;10742;51.816;8.662;2023-04-06T11:18:37;20.20;;;7.87;;
21168;SDS011;10742;51.816;8.662;2023-04-06T11:21:41;16.60;;;7.60;;
21168;SDS011;10742;51.816;8.662;2023-04-06T11:24:45;17.63;;;7.37;;
21168;SDS011;10742;51.816;8.662;2023-04-06T11:27:47;17.83;;;7.83;;
21168;SDS011;10742;51.816;8.662;2023-04-06T11:30:50;20.83;;;8.30;;
21168;SDS011;10742;51.816;8.662;2023-04-06T11:33:56;16.67;;;7.77;;
21168;SDS011;10742;51.816;8.662;2023-04-06T11:37:00;17.03;;;7.27;;
21168;SDS011;10742;51.816;8.662;2023-04-06T11:40:07;18.87;;;8.03;;
21168;SDS011;10742;51.816;8.662;2023-04-06T11:43:13;17.97;;;7.90;;
21168;SDS011;10742;51.816;8.662;2023-04-06T11:46:17;17.30;;;7.10;;
21168;SDS011;10742;51.816;8.662;2023-04-06T11:49:21;19.80;;;8.13;;
21168;SDS011;10742;51.816;8.662;2023-04-06T11:52:24;17.57;;;7.93;;
21168;SDS011;10742;51.816;8.662;2023-04-06T11:55:29;20.67;;;8.30;;
21168;SDS011;10742;51.816;8.662;2023-04-06T11:58:39;21.00;;;8.17;;
21168;SDS011;10742;51.816;8.662;2023-04-06T12:01:45;19.93;;;8.07;;
21168;SDS011;10742;51.816;8.662;2023-04-06T12:04:47;21.00;;;8.17;;
21168;SDS011;10742;51.816;8.662;2023-04-06T12:07:50;19.40;;;7.90;;
21168;SDS011;10742;51.816;8.662;2023-04-06T12:10:52;19.17;;;8.03;;
21168;SDS011;10742;51.816;8.662;2023-04-06T12:13:55;19.10;;;7.87;;
21168;SDS011;10742;51.816;8.662;2023-04-06T12:16:57;16.83;;;6.60;;
21168;SDS011;10742;51.816;8.662;2023-04-06T12:20:00;16.73;;;6.37;;
21168;SDS011;10742;51.816;8.662;2023-04-06T12:23:06;14.53;;;6.10;;
21168;SDS011;10742;51.816;8.662;2023-04-06T12:26:08;18.17;;;6.90;;
21168;SDS011;10742;51.816;8.662;2023-04-06T12:29:11;15.40;;;6.33;;
21168;SDS011;10742;51.816;8.662;2023-04-06T12:32:15;15.13;;;6.47;;
21168;SDS011;10742;51.816;8.662;2023-04-06T12:35:17;17.90;;;6.70;;
21168;SDS011;10742;51.816;8.662;2023-04-06T12:38:20;15.57;;;5.93;;
21168;SDS011;10742;51.816;8.662;2023-04-06T12:41:23;15.13;;;6.70;;
21168;SDS011;10742;51.816;8.662;2023-04-06T12:44:26;15.97;;;6.53;;
21168;SDS011;10742;51.816;8.662;2023-04-06T12:47:29;17.40;;;7.23;;
21168;SDS011;10742;51.816;8.662;2023-04-06T12:50:31;17.93;;;7.87;;
21168;SDS011;10742;51.816;8.662;2023-04-06T12:53:34;17.60;;;7.17;;
21168;SDS011;10742;51.816;8.662;2023-04-06T12:56:37;19.83;;;8.03;;
21168;SDS011;10742;51.816;8.662;2023-04-06T12:59:45;17.00;;;7.63;;
21168;SDS011;10742;51.816;8.662;2023-04-06T13:02:48;17.67;;;7.30;;
21168;SDS011;10742;51.816;8.662;2023-04-06T13:05:50;17.00;;;7.50;;
21168;SDS011;10742;51.816;8.662;2023-04-06T13:08:53;17.17;;;7.53;;
21168;SDS011;10742;51.816;8.662;2023-04-06T13:11:55;18.53;;;8.17;;
21168;SDS011;10742;51.816;8.662;2023-04-06T13:14:58;18.37;;;7.27;;
21168;SDS011;10742;51.816;8.662;2023-04-06T13:18:02;14.33;;;6.83;;
21168;SDS011;10742;51.816;8.662;2023-04-06T13:21:05;20.67;;;7.67;;
21168;SDS011;10742;51.816;8.662;2023-04-06T13:24:08;16.60;;;7.13;;
21168;SDS011;10742;51.816;8.662;2023-04-06T13:27:11;16.17;;;7.50;;
21168;SDS011;10742;51.816;8.662;2023-04-06T13:30:14;18.40;;;7.77;;
21168;SDS011;10742;51.816;8.662;2023-04-06T13:33:22;20.07;;;7.70;;
21168;SDS011;10742;51.816;8.662;2023-04-06T13:36:26;15.40;;;7.10;;
21168;SDS011;10742;51.816;8.662;2023-04-06T13:39:29;20.83;;;8.20;;
21168;SDS011;10742;51.816;8.662;2023-04-06T13:42:33;24.63;;;8.43;;
21168;SDS011;10742;51.816;8.662;2023-04-06T13:45:37;17.47;;;6.73;;
21168;SDS011;10742;51.816;8.662;2023-04-06T13:48:40;18.50;;;7.80;;
21168;SDS011;10742;51.816;8.662;2023-04-06T13:51:42;22.83;;;8.23;;
21168;SDS011;10742;51.816;8.662;2023-04-06T13:54:45;19.50;;;8.40;;
21168;SDS011;10742;51.816;8.662;2023-04-06T13:57:48;21.47;;;9.07;;
21168;SDS011;10742;51.816;8.662;2023-04-06T14:00:50;22.83;;;8.93;;
21168;SDS011;10742;51.816;8.662;2023-04-06T14:03:53;20.00;;;8.17;;
21168;SDS011;10742;51.816;8.662;2023-04-06T14:06:56;19.73;;;7.87;;
21168;SDS011;10742;51.816;8.662;2023-04-06T14:09:59;24.00;;;9.40;;
21168;SDS011;10742;51.816;8.662;2023-04-06T14:13:01;18.87;;;8.23;;
21168;SDS011;10742;51.816;8.662;2023-04-06T14:16:04;21.57;;;8.93;;
21168;SDS011;10742;51.816;8.662;2023-04-06T14:19:10;24.87;;;10.73;;
21168;SDS011;10742;51.816;8.662;2023-04-06T14:22:13;22.67;;;10.03;;
21168;SDS011;10742;51.816;8.662;2023-04-06T14:25:16;22.77;;;10.23;;
21168;SDS011;10742;51.816;8.662;2023-04-06T14:28:20;22.33;;;9.43;;
21168;SDS011;10742;51.816;8.662;2023-04-06T14:31:22;23.03;;;9.53;;
21168;SDS011;10742;51.816;8.662;2023-04-06T14:34:26;24.87;;;10.07;;
21168;SDS011;10742;51.816;8.662;2023-04-06T14:37:29;21.43;;;9.07;;
21168;SDS011;10742;51.816;8.662;2023-04-06T14:40:34;26.53;;;9.77;;
21168;SDS011;10742;51.816;8.662;2023-04-06T14:43:37;23.43;;;9.70;;
21168;SDS011;10742;51.816;8.662;2023-04-06T14:46:40;23.53;;;10.00;;
21168;SDS011;10742;51.816;8.662;2023-04-06T14:49:43;20.47;;;9.30;;
21168;SDS011;10742;51.816;8.662;2023-04-06T14:52:45;21.57;;;9.30;;
21168;SDS011;10742;51.816;8.662;2023-04-06T14:55:48;20.33;;;8.87;;
21168;SDS011;10742;51.816;8.662;2023-04-06T14:58:56;17.47;;;8.00;;
21168;SDS011;10742;51.816;8.662;2023-04-06T15:02:01;13.93;;;6.20;;
21168;SDS011;10742;51.816;8.662;2023-04-06T15:05:05;11.70;;;5.47;;
21168;SDS011;10742;51.816;8.662;2023-04-06T15:08:07;12.77;;;5.60;;
21168;SDS011;10742;51.816;8.662;2023-04-06T15:11:14;11.33;;;5.60;;
21168;SDS011;10742;51.816;8.662;2023-04-06T15:14:16;12.43;;;4.97;;
21168;SDS011;10742;51.816;8.662;2023-04-06T15:17:19;12.77;;;5.23;;
21168;SDS011;10742;51.816;8.662;2023-04-06T15:20:21;10.37;;;5.43;;
21168;SDS011;10742;51.816;8.662;2023-04-06T15:23:24;15.47;;;5.67;;
21168;SDS011;10742;51.816;8.662;2023-04-06T15:26:26;18.23;;;6.17;;
21168;SDS011;10742;51.816;8.662;2023-04-06T15:29:30;26.00;;;12.73;;
21168;SDS011;10742;51.816;8.662;2023-04-06T15:32:32;15.60;;;7.60;;
21168;SDS011;10742;51.816;8.662;2023-04-06T15:35:35;16.60;;;6.63;;
21168;SDS011;10742;51.816;8.662;2023-04-06T15:38:41;14.50;;;5.93;;
21168;SDS011;10742;51.816;8.662;2023-04-06T15:41:44;15.67;;;5.07;;
21168;SDS011;10742;51.816;8.662;2023-04-06T15:44:47;11.40;;;5.00;;
21168;SDS011;10742;51.816;8.662;2023-04-06T15:47:49;16.00;;;6.40;;
21168;SDS011;10742;51.816;8.662;2023-04-06T15:50:52;10.60;;;5.10;;
21168;SDS011;10742;51.816;8.662;2023-04-06T15:53:54;16.37;;;6.13;;
21168;SDS011;10742;51.816;8.662;2023-04-06T15:56:57;13.53;;;5.30;;
21168;SDS011;10742;51.816;8.662;2023-04-06T16:00:00;13.33;;;6.33;;
21168;SDS011;10742;51.816;8.662;2023-04-06T16:03:03;17.07;;;5.97;;
21168;SDS011;10742;51.816;8.662;2023-04-06T16:06:05;16.40;;;6.00;;
21168;SDS011;10742;51.816;8.662;2023-04-06T16:09:09;12.27;;;5.77;;
21168;SDS011;10742;51.816;8.662;2023-04-06T16:12:11;13.93;;;5.63;;
21168;SDS011;10742;51.816;8.662;2023-04-06T16:15:14;13.43;;;5.27;;
21168;SDS011;10742;51.816;8.662;2023-04-06T16:18:17;14.17;;;5.73;;
21168;SDS011;10742;51.816;8.662;2023-04-06T16:21:20;11.40;;;5.60;;
21168;SDS011;10742;51.816;8.662;2023-04-06T16:24:22;16.10;;;6.83;;
21168;SDS011;10742;51.816;8.662;2023-04-06T16:27:25;16.33;;;6.63;;
21168;SDS011;10742;51.816;8.662;2023-04-06T16:30:28;13.77;;;5.93;;
21168;SDS011;10742;51.816;8.662;2023-04-06T16:33:32;17.27;;;6.20;;
21168;SDS011;10742;51.816;8.662;2023-04-06T16:36:34;15.17;;;5.87;;
21168;SDS011;10742;51.816;8.662;2023-04-06T16:39:37;17.97;;;6.40;;
21168;SDS011;10742;51.816;8.662;2023-04-06T16:42:42;12.30;;;5.57;;
21168;SDS011;10742;51.816;8.662;2023-04-06T16:45:48;13.63;;;6.00;;
21168;SDS011;10742;51.816;8.662;2023-04-06T16:48:53;11.93;;;5.93;;
21168;SDS011;10742;51.816;8.662;2023-04-06T16:51:55;13.53;;;6.30;;
21168;SDS011;10742;51.816;8.662;2023-04-06T16:55:03;16.23;;;6.70;;
21168;SDS011;10742;51.816;8.662;2023-04-06T16:58:07;15.80;;;6.33;;
21168;SDS011;10742;51.816;8.662;2023-04-06T17:01:25;15.37;;;6.20;;
21168;SDS011;10742;51.816;8.662;2023-04-06T17:04:28;12.97;;;6.13;;
21168;SDS011;10742;51.816;8.662;2023-04-06T17:07:31;14.03;;;6.60;;
21168;SDS011;10742;51.816;8.662;2023-04-06T17:10:36;15.33;;;6.87;;
21168;SDS011;10742;51.816;8.662;2023-04-06T17:13:42;15.67;;;6.43;;
21168;SDS011;10742;51.816;8.662;2023-04-06T17:16:45;13.77;;;6.70;;
21168;SDS011;10742;51.816;8.662;2023-04-06T17:19:47;13.60;;;6.30;;
21168;SDS011;10742;51.816;8.662;2023-04-06T17:22:50;13.50;;;6.00;;
21168;SDS011;10742;51.816;8.662;2023-04-06T17:25:52;15.20;;;6.73;;
21168;SDS011;10742;51.816;8.662;2023-04-06T17:28:55;17.13;;;7.07;;
21168;SDS011;10742;51.816;8.662;2023-04-06T17:31:58;14.57;;;6.27;;
21168;SDS011;10742;51.816;8.662;2023-04-06T17:35:01;19.43;;;7.10;;
21168;SDS011;10742;51.816;8.662;2023-04-06T17:38:03;16.93;;;7.00;;
21168;SDS011;10742;51.816;8.662;2023-04-06T17:41:07;15.37;;;6.90;;
21168;SDS011;10742;51.816;8.662;2023-04-06T17:44:10;18.37;;;7.50;;
21168;SDS011;10742;51.816;8.662;2023-04-06T17:47:13;16.40;;;7.20;;
21168;SDS011;10742;51.816;8.662;2023-04-06T17:50:17;21.73;;;8.90;;
21168;SDS011;10742;51.816;8.662;2023-04-06T17:53:19;17.77;;;7.63;;
21168;SDS011;10742;51.816;8.662;2023-04-06T17:56:22;29.43;;;10.93;;
21168;SDS011;10742;51.816;8.662;2023-04-06T17:59:25;31.17;;;12.53;;
21168;SDS011;10742;51.816;8.662;2023-04-06T18:02:27;27.13;;;9.63;;
21168;SDS011;10742;51.816;8.662;2023-04-06T18:05:31;19.97;;;7.63;;
21168;SDS011;10742;51.816;8.662;2023-04-06T18:08:33;15.03;;;7.37;;
21168;SDS011;10742;51.816;8.662;2023-04-06T18:11:36;23.40;;;8.43;;
21168;SDS011;10742;51.816;8.662;2023-04-06T18:14:38;20.20;;;7.97;;
21168;SDS011;10742;51.816;8.662;2023-04-06T18:17:42;21.97;;;7.60;;
21168;SDS011;10742;51.816;8.662;2023-04-06T18:20:46;25.50;;;8.30;;
21168;SDS011;10742;51.816;8.662;2023-04-06T18:23:48;22.37;;;7.73;;